createdAt,value
2023-06-30T00:00:16.797Z,91718.06
2023-06-30T00:03:07.742Z,91720.98
2023-06-30T00:05:36.067Z,91720.27
2023-06-30T00:08:04.787Z,91716.86
2023-06-30T00:10:33.083Z,91719.55
2023-06-30T00:13:01.534Z,91714.80
2023-06-30T00:15:29.931Z,91714.81
2023-06-30T00:17:58.560Z,91715.69
2023-06-30T00:20:27.058Z,91717.09
2023-06-30T00:22:55.353Z,91719.42
2023-06-30T00:25:23.653Z,91717.59
2023-06-30T00:27:51.870Z,91713.58
2023-06-30T00:30:20.114Z,91710.91
2023-06-30T00:32:50.889Z,91710.17
2023-06-30T00:35:20.440Z,91710.13
2023-06-30T00:37:48.726Z,91709.54
2023-06-30T00:40:16.888Z,91707.85
2023-06-30T00:42:45.260Z,91711.30
2023-06-30T00:45:13.777Z,91714.86
2023-06-30T00:47:43.933Z,91711.27
2023-06-30T00:50:14.119Z,91710.30
2023-06-30T00:52:44.875Z,91707.02
2023-06-30T00:55:14.417Z,91702.52
2023-06-30T00:57:43.641Z,91704.85
2023-06-30T01:00:13.150Z,91706.04
2023-06-30T01:02:53.045Z,91707.37
2023-06-30T01:05:36.024Z,91706.17
2023-06-30T01:08:21.580Z,91711.81
2023-06-30T01:10:51.359Z,91712.63
2023-06-30T01:13:19.949Z,91716.19
2023-06-30T01:15:50.271Z,91712.70
2023-06-30T01:18:23.188Z,91712.45
2023-06-30T01:20:52.408Z,91711.16
2023-06-30T01:23:54.001Z,91708.40
2023-06-30T01:26:23.562Z,91705.39
2023-06-30T01:28:52.452Z,91702.59
2023-06-30T01:31:21.694Z,91704.52
2023-06-30T01:33:50.417Z,91704.62
2023-06-30T01:36:18.890Z,91702.36
2023-06-30T01:38:47.233Z,91701.63
2023-06-30T01:41:15.626Z,91705.45
2023-06-30T01:43:45.910Z,91703.67
2023-06-30T01:46:15.258Z,91706.77
2023-06-30T01:48:44.541Z,91708.56
2023-06-30T01:51:15.024Z,91707.63
2023-06-30T01:53:43.545Z,91708.23
2023-06-30T01:56:13.571Z,91703.58
2023-06-30T01:58:41.948Z,91700.20
2023-06-30T02:01:10.337Z,91702.05
2023-06-30T02:03:38.922Z,91704.13
2023-06-30T02:06:07.371Z,91704.64
2023-06-30T02:08:35.620Z,91707.05
2023-06-30T02:11:04.156Z,91704.44
2023-06-30T02:13:32.577Z,91705.81
2023-06-30T02:16:00.939Z,91707.70
2023-06-30T02:18:29.167Z,91703.46
2023-06-30T02:20:57.410Z,91707.21
2023-06-30T02:23:30.274Z,91709.84
2023-06-30T02:25:58.788Z,91707.19
2023-06-30T02:28:27.417Z,91707.02
2023-06-30T02:30:57.324Z,91703.17
2023-06-30T02:33:25.942Z,91701.45
2023-06-30T02:35:54.359Z,91700.16
2023-06-30T02:38:22.711Z,91695.83
2023-06-30T02:40:51.026Z,91699.52
2023-06-30T02:43:19.312Z,91698.08
2023-06-30T02:45:47.923Z,91697.45
2023-06-30T02:48:16.554Z,91696.19
2023-06-30T02:50:44.978Z,91698.00
2023-06-30T02:53:14.240Z,91695.13
2023-06-30T02:55:42.723Z,91699.59
2023-06-30T02:58:14.616Z,91696.63
2023-06-30T03:00:43.675Z,91697.10
2023-06-30T03:03:12.702Z,91693.81
2023-06-30T03:05:42.507Z,91697.08
2023-06-30T03:08:12.044Z,91689.70
2023-06-30T03:10:41.717Z,91692.60
2023-06-30T03:13:10.133Z,91687.61
2023-06-30T03:15:38.420Z,91689.65
2023-06-30T03:18:07.576Z,91687.97
2023-06-30T03:20:36.238Z,91687.09
2023-06-30T03:23:06.372Z,91687.52
2023-06-30T03:25:34.632Z,91692.05
2023-06-30T03:28:02.925Z,91694.73
2023-06-30T03:30:31.632Z,91691.16
2023-06-30T03:33:00.061Z,91691.27
2023-06-30T03:35:28.473Z,91694.23
2023-06-30T03:37:56.744Z,91695.09
2023-06-30T03:40:25.304Z,91688.38
2023-06-30T03:42:53.703Z,91684.55
2023-06-30T03:45:22.003Z,91682.50
2023-06-30T03:47:50.242Z,91689.02
2023-06-30T03:50:18.833Z,91688.77
2023-06-30T03:52:47.209Z,91684.54
2023-06-30T03:55:15.590Z,91679.72
2023-06-30T03:57:44.042Z,91680.02
2023-06-30T04:00:12.976Z,91679.84
2023-06-30T04:02:42.090Z,91681.69
2023-06-30T04:05:11.283Z,91682.09
2023-06-30T04:07:39.744Z,91684.67
2023-06-30T04:10:08.512Z,91683.19
2023-06-30T04:12:36.755Z,91680.75
2023-06-30T04:15:08.750Z,91677.46
2023-06-30T04:17:37.353Z,91675.98
2023-06-30T04:20:11.055Z,91675.19
2023-06-30T04:22:39.617Z,91675.15
2023-06-30T04:25:08.575Z,91674.61
2023-06-30T04:27:36.940Z,91677.30
2023-06-30T04:30:08.427Z,91678.04
2023-06-30T04:32:36.856Z,91677.13
2023-06-30T04:35:05.868Z,91677.77
2023-06-30T04:37:34.100Z,91680.49
2023-06-30T04:40:05.806Z,91678.72
2023-06-30T04:42:34.164Z,91682.60
2023-06-30T04:45:02.466Z,91680.75
2023-06-30T04:47:30.898Z,91678.06
2023-06-30T04:49:59.335Z,91685.34
2023-06-30T04:52:27.679Z,91683.41
2023-06-30T04:54:57.558Z,91688.34
2023-06-30T04:57:25.858Z,91686.88
2023-06-30T04:59:56.145Z,91687.61
2023-06-30T05:02:24.476Z,91689.85
2023-06-30T05:04:52.773Z,91688.31
2023-06-30T05:07:21.795Z,91685.77
2023-06-30T05:09:50.110Z,91687.02
2023-06-30T05:12:18.537Z,91685.53
2023-06-30T05:14:47.650Z,91688.30
2023-06-30T05:17:16.625Z,91689.27
2023-06-30T05:19:45.111Z,91690.11
2023-06-30T05:22:13.452Z,91690.08
2023-06-30T05:24:41.736Z,91690.02
2023-06-30T05:27:10.076Z,91686.41
2023-06-30T05:29:38.285Z,91687.58
2023-06-30T05:32:07.537Z,91686.15
2023-06-30T05:34:35.866Z,91686.36
2023-06-30T05:37:04.486Z,91690.14
2023-06-30T05:39:32.665Z,91690.30
2023-06-30T05:42:02.336Z,91686.71
2023-06-30T05:44:30.715Z,91683.36
2023-06-30T05:46:59.113Z,91686.05
2023-06-30T05:49:27.413Z,91686.46
2023-06-30T05:51:55.716Z,91689.08
2023-06-30T05:54:23.985Z,91686.85
2023-06-30T05:56:52.352Z,91688.63
2023-06-30T05:59:20.647Z,91688.72
2023-06-30T06:01:49.391Z,91692.27
2023-06-30T06:04:19.687Z,91688.70
2023-06-30T06:06:48.282Z,91690.01
2023-06-30T06:09:16.816Z,91686.68
2023-06-30T06:11:45.158Z,91689.52
2023-06-30T06:14:13.393Z,91691.92
2023-06-30T06:16:45.998Z,91688.91
2023-06-30T06:19:16.326Z,91689.17
2023-06-30T06:21:44.749Z,91690.45
2023-06-30T06:24:13.709Z,91686.39
2023-06-30T06:26:43.100Z,91686.70
2023-06-30T06:29:15.779Z,91687.39
2023-06-30T06:31:46.098Z,91685.75
2023-06-30T06:34:14.398Z,91681.55
2023-06-30T06:36:42.655Z,91682.66
2023-06-30T06:39:10.965Z,91676.28
2023-06-30T06:41:39.636Z,91678.25
2023-06-30T06:44:08.576Z,91673.19
2023-06-30T06:46:36.871Z,91672.00
2023-06-30T06:49:05.778Z,91667.97
2023-06-30T06:51:34.830Z,91669.98
2023-06-30T06:54:03.691Z,91664.70
2023-06-30T06:56:32.135Z,91668.50
2023-06-30T06:59:00.320Z,91662.36
2023-06-30T07:01:28.700Z,91665.19
2023-06-30T07:03:57.060Z,91667.17
2023-06-30T07:06:26.078Z,91668.98
2023-06-30T07:08:54.351Z,91666.45
2023-06-30T07:11:22.704Z,91665.67
2023-06-30T07:13:50.937Z,91664.04
2023-06-30T07:16:19.584Z,91663.46
2023-06-30T07:18:48.204Z,91662.36
2023-06-30T07:21:16.517Z,91665.77
2023-06-30T07:23:45.840Z,91665.11
2023-06-30T07:26:14.106Z,91661.52
2023-06-30T07:28:42.369Z,91659.66
2023-06-30T07:31:10.719Z,91663.08
2023-06-30T07:33:39.105Z,91665.91
2023-06-30T07:36:07.631Z,91662.83
2023-06-30T07:38:35.902Z,91660.19
2023-06-30T07:41:04.128Z,91664.54
2023-06-30T07:43:32.336Z,91661.27
2023-06-30T07:46:00.636Z,91660.90
2023-06-30T07:48:29.097Z,91666.33
2023-06-30T07:51:08.714Z,91661.86
2023-06-30T07:53:38.084Z,91658.80
2023-06-30T07:56:06.329Z,91660.08
2023-06-30T07:58:34.617Z,91658.57
2023-06-30T08:01:03.414Z,91656.95
2023-06-30T08:03:31.832Z,91653.22
2023-06-30T08:06:01.483Z,91651.17
2023-06-30T08:08:32.547Z,91653.04
2023-06-30T08:11:00.898Z,91650.89
2023-06-30T08:13:29.264Z,91653.77
2023-06-30T08:15:57.685Z,91651.52
2023-06-30T08:18:32.365Z,91652.05
2023-06-30T08:21:04.105Z,91646.48
2023-06-30T08:23:32.737Z,91645.52
2023-06-30T08:26:01.196Z,91651.70
2023-06-30T08:28:29.507Z,91649.36
2023-06-30T08:30:57.830Z,91644.37
2023-06-30T08:33:39.876Z,91645.66
2023-06-30T08:36:09.185Z,91647.64
2023-06-30T08:38:37.551Z,91649.14
2023-06-30T08:41:05.931Z,91649.79
2023-06-30T08:43:34.388Z,91654.31
2023-06-30T08:46:05.100Z,91652.15
2023-06-30T08:48:34.076Z,91652.98
2023-06-30T08:51:03.558Z,91637.65
2023-06-30T08:53:32.621Z,91640.00
2023-06-30T08:56:01.523Z,91634.50
2023-06-30T08:58:30.385Z,91634.42
2023-06-30T09:00:59.009Z,91633.47
2023-06-30T09:03:28.341Z,91638.70
2023-06-30T09:05:59.895Z,91636.13
2023-06-30T09:08:35.139Z,91638.64
2023-06-30T09:11:05.714Z,91638.63
2023-06-30T09:13:36.969Z,91634.80
2023-06-30T09:16:09.453Z,91633.58
2023-06-30T09:18:38.073Z,91632.67
2023-06-30T09:21:07.857Z,91630.19
2023-06-30T09:23:36.233Z,91630.60
2023-06-30T09:26:13.893Z,91632.98
2023-06-30T09:28:46.339Z,91626.42
2023-06-30T09:31:15.854Z,91631.00
2023-06-30T09:33:48.783Z,91625.46
2023-06-30T09:36:18.931Z,91630.33
2023-06-30T09:38:47.321Z,91624.66
2023-06-30T09:41:21.345Z,91624.14
2023-06-30T09:43:58.050Z,91623.65
2023-06-30T09:46:29.880Z,91620.25
2023-06-30T09:48:59.714Z,91616.50
2023-06-30T09:51:28.152Z,91616.58
2023-06-30T09:53:57.595Z,91617.45
2023-06-30T09:56:28.243Z,91615.60
2023-06-30T09:59:00.378Z,91615.61
2023-06-30T10:01:30.076Z,91611.97
2023-06-30T10:03:58.676Z,91613.64
2023-06-30T10:06:29.849Z,91608.14
2023-06-30T10:08:59.660Z,91604.51
2023-06-30T10:11:29.525Z,91599.48
2023-06-30T10:14:00.753Z,91594.73
2023-06-30T10:16:30.450Z,91595.42
2023-06-30T10:19:03.916Z,91595.86
2023-06-30T10:21:32.525Z,91595.12
2023-06-30T10:24:03.557Z,91591.45
2023-06-30T10:26:36.023Z,91588.56
2023-06-30T10:29:05.819Z,91581.14
2023-06-30T10:31:34.654Z,91591.48
2023-06-30T10:34:03.847Z,91586.08
2023-06-30T10:36:32.851Z,91590.05
2023-06-30T10:39:01.867Z,91592.13
2023-06-30T10:41:30.622Z,91597.98
2023-06-30T10:44:01.681Z,91593.30
2023-06-30T10:46:42.386Z,91595.30
2023-06-30T10:49:35.670Z,91594.70
2023-06-30T10:52:08.741Z,91582.62
2023-06-30T10:55:09.863Z,91581.13
2023-06-30T10:57:38.508Z,91579.13
2023-06-30T11:00:15.852Z,91576.29
2023-06-30T11:02:51.387Z,91570.23
2023-06-30T11:05:31.337Z,91562.59
2023-06-30T11:08:08.263Z,91562.10
2023-06-30T11:10:45.858Z,91557.32
2023-06-30T11:13:15.497Z,91557.15
2023-06-30T11:15:44.274Z,91554.30
2023-06-30T11:18:17.073Z,91549.05
2023-06-30T11:21:05.839Z,91546.66
2023-06-30T11:23:40.086Z,91544.02
2023-06-30T11:26:20.294Z,91543.25
2023-06-30T11:28:49.852Z,91538.05
2023-06-30T11:31:18.905Z,91529.66
2023-06-30T11:33:47.786Z,91527.19
2023-06-30T11:36:17.944Z,91528.03
2023-06-30T11:38:50.518Z,91524.91
2023-06-30T11:41:20.488Z,91523.48
2023-06-30T11:43:55.086Z,91525.25
2023-06-30T11:46:23.955Z,91519.10
2023-06-30T11:48:52.263Z,91520.73
2023-06-30T11:51:20.835Z,91515.27
2023-06-30T11:53:50.089Z,91515.83
2023-06-30T11:56:22.053Z,91511.16
2023-06-30T11:58:54.262Z,91509.27
2023-06-30T12:01:22.770Z,91507.45
2023-06-30T12:03:59.377Z,91509.47
2023-06-30T12:06:29.565Z,91502.40
2023-06-30T12:08:58.665Z,91502.44
2023-06-30T12:11:30.668Z,91499.48
2023-06-30T12:13:59.008Z,91496.96
2023-06-30T12:16:28.173Z,91502.60
2023-06-30T12:18:56.509Z,91498.13
2023-06-30T12:21:24.838Z,91499.26
2023-06-30T12:23:53.101Z,91485.88
2023-06-30T12:26:30.376Z,91478.02
2023-06-30T12:29:06.416Z,91478.29
2023-06-30T12:31:35.074Z,91476.66
2023-06-30T12:34:03.697Z,91476.70
2023-06-30T12:36:32.098Z,91476.62
2023-06-30T12:39:00.547Z,91478.98
2023-06-30T12:41:29.155Z,91473.52
2023-06-30T12:43:59.982Z,91473.75
2023-06-30T12:46:28.625Z,91472.92
2023-06-30T12:48:57.106Z,91471.58
2023-06-30T12:51:25.415Z,91470.61
2023-06-30T12:53:53.617Z,91467.31
2023-06-30T12:56:21.943Z,91469.23
2023-06-30T12:58:50.244Z,91467.86
2023-06-30T13:01:19.285Z,91467.20
2023-06-30T13:03:47.685Z,91465.77
2023-06-30T13:06:16.184Z,91467.63
2023-06-30T13:08:44.412Z,91466.28
2023-06-30T13:11:13.241Z,91464.46
2023-06-30T13:13:41.527Z,91465.37
2023-06-30T13:16:09.885Z,91464.21
2023-06-30T13:18:38.192Z,91463.02
2023-06-30T13:21:06.680Z,91458.83
2023-06-30T13:23:37.370Z,91463.72
2023-06-30T13:26:07.491Z,91462.83
2023-06-30T13:28:36.174Z,91461.19
2023-06-30T13:31:07.027Z,91459.92
2023-06-30T13:33:35.340Z,91456.91
2023-06-30T13:36:04.765Z,91461.32
2023-06-30T13:38:33.281Z,91461.94
2023-06-30T13:41:01.563Z,91456.38
2023-06-30T13:43:32.851Z,91457.92
2023-06-30T13:46:01.159Z,91451.81
2023-06-30T13:48:29.546Z,91442.91
2023-06-30T13:50:57.931Z,91443.10
2023-06-30T13:53:26.473Z,91440.19
2023-06-30T13:55:57.562Z,91439.67
2023-06-30T13:58:25.824Z,91442.95
2023-06-30T14:00:54.174Z,91437.88
2023-06-30T14:03:22.629Z,91438.13
2023-06-30T14:05:53.622Z,91431.98
2023-06-30T14:08:22.254Z,91427.93
2023-06-30T14:10:50.621Z,91420.88
2023-06-30T14:13:19.013Z,91420.13
2023-06-30T14:15:47.696Z,91412.39
2023-06-30T14:18:16.339Z,91410.11
2023-06-30T14:20:48.390Z,91410.27
2023-06-30T14:23:16.775Z,91411.45
2023-06-30T14:25:45.174Z,91415.91
2023-06-30T14:28:13.721Z,91416.48
2023-06-30T14:30:42.102Z,91415.02
2023-06-30T14:33:10.505Z,91414.91
2023-06-30T14:35:38.935Z,91408.23
2023-06-30T14:38:07.699Z,91405.88
2023-06-30T14:40:37.008Z,91400.92
2023-06-30T14:43:05.435Z,91403.13
2023-06-30T14:45:36.209Z,91408.81
2023-06-30T14:48:04.750Z,91405.71
2023-06-30T14:50:33.053Z,91405.46
2023-06-30T14:53:01.291Z,91398.15
2023-06-30T14:55:29.562Z,91400.77
2023-06-30T14:57:58.927Z,91400.30
2023-06-30T15:00:27.202Z,91403.32
2023-06-30T15:02:56.500Z,91401.30
2023-06-30T15:05:25.097Z,91399.64
2023-06-30T15:07:55.049Z,91398.09
2023-06-30T15:10:23.884Z,91400.55
2023-06-30T15:12:53.110Z,91401.14
2023-06-30T15:15:21.572Z,91399.17
2023-06-30T15:17:50.043Z,91403.73
2023-06-30T15:20:18.478Z,91397.27
2023-06-30T15:22:46.711Z,91400.42
2023-06-30T15:25:29.173Z,91391.88
2023-06-30T15:27:58.384Z,91392.92
2023-06-30T15:30:26.653Z,91393.94
2023-06-30T15:32:55.124Z,91393.48
2023-06-30T15:35:26.340Z,91395.20
2023-06-30T15:37:54.750Z,91394.30
2023-06-30T15:40:22.977Z,91389.34
2023-06-30T15:42:51.400Z,91384.51
2023-06-30T15:45:20.216Z,91389.21
2023-06-30T15:47:48.577Z,91386.89
2023-06-30T15:50:16.907Z,91388.73
2023-06-30T15:52:45.221Z,91392.09
2023-06-30T15:55:15.675Z,91388.34
2023-06-30T15:57:44.111Z,91384.17
2023-06-30T16:00:13.177Z,91382.22
2023-06-30T16:02:43.441Z,91380.51
2023-06-30T16:05:12.066Z,91382.11
2023-06-30T16:07:40.418Z,91382.59
2023-06-30T16:10:09.039Z,91379.36
2023-06-30T16:12:37.440Z,91380.13
2023-06-30T16:15:09.088Z,91378.11
2023-06-30T16:17:37.433Z,91376.15
2023-06-30T16:20:07.143Z,91377.31
2023-06-30T16:22:35.568Z,91379.88
2023-06-30T16:25:03.892Z,91378.20
2023-06-30T16:27:32.176Z,91381.20
2023-06-30T16:30:29.716Z,91378.61
2023-06-30T16:33:00.577Z,91380.98
2023-06-30T16:35:29.564Z,91379.85
2023-06-30T16:38:01.147Z,91387.29
2023-06-30T16:40:29.500Z,91390.03
2023-06-30T16:42:58.010Z,91388.92
2023-06-30T16:45:26.585Z,91386.27
2023-06-30T16:47:55.444Z,91387.41
2023-06-30T16:50:23.794Z,91387.32
2023-06-30T16:52:52.222Z,91388.49
2023-06-30T16:55:20.600Z,91391.66
2023-06-30T16:57:49.438Z,91390.83
2023-06-30T17:00:18.376Z,91395.21
2023-06-30T17:02:48.052Z,91396.76
2023-06-30T17:05:17.176Z,91403.07
2023-06-30T17:07:45.644Z,91400.12
2023-06-30T17:10:13.970Z,91402.19
2023-06-30T17:12:42.122Z,91400.73
2023-06-30T17:15:10.766Z,91398.83
2023-06-30T17:17:39.162Z,91397.16
2023-06-30T17:20:08.472Z,91397.09
2023-06-30T17:22:36.999Z,91399.63
2023-06-30T17:25:06.156Z,91404.88
2023-06-30T17:27:34.876Z,91403.80
2023-06-30T17:30:03.351Z,91404.98
2023-06-30T17:32:31.672Z,91403.67
2023-06-30T17:34:59.971Z,91397.22
2023-06-30T17:37:28.483Z,91396.29
2023-06-30T17:39:57.052Z,91398.80
2023-06-30T17:42:25.344Z,91401.83
2023-06-30T17:44:54.664Z,91401.19
2023-06-30T17:47:24.022Z,91405.09
2023-06-30T17:49:52.299Z,91406.06
2023-06-30T17:52:20.611Z,91401.58
2023-06-30T17:54:49.083Z,91401.38
2023-06-30T17:57:17.405Z,91402.63
2023-06-30T17:59:45.737Z,91404.08
2023-06-30T18:02:14.186Z,91405.46
2023-06-30T18:04:43.127Z,91408.41
2023-06-30T18:07:13.009Z,91408.14
2023-06-30T18:09:43.868Z,91417.55
2023-06-30T18:12:12.837Z,91416.17
2023-06-30T18:14:43.120Z,91414.11
2023-06-30T18:17:11.531Z,91418.33
2023-06-30T18:19:43.603Z,91416.91
2023-06-30T18:22:12.883Z,91415.74
2023-06-30T18:24:41.436Z,91416.67
2023-06-30T18:27:09.662Z,91418.48
2023-06-30T18:29:40.705Z,91421.48
2023-06-30T18:32:09.583Z,91427.99
2023-06-30T18:34:37.962Z,91430.95
2023-06-30T18:37:08.672Z,91435.28
2023-06-30T18:39:38.922Z,91436.86
2023-06-30T18:42:07.614Z,91436.93
2023-06-30T18:44:38.074Z,91441.02
2023-06-30T18:47:07.189Z,91439.86
2023-06-30T18:49:36.116Z,91440.25
2023-06-30T18:52:04.717Z,91444.17
2023-06-30T18:54:32.951Z,91441.73
2023-06-30T18:57:01.179Z,91444.69
2023-06-30T18:59:29.494Z,91446.44
2023-06-30T19:01:57.839Z,91441.20
2023-06-30T19:04:26.423Z,91446.36
2023-06-30T19:06:54.735Z,91445.86
2023-06-30T19:09:23.192Z,91451.42
2023-06-30T19:11:51.465Z,91454.11
2023-06-30T19:14:22.146Z,91455.80
2023-06-30T19:16:50.474Z,91450.71
2023-06-30T19:19:19.225Z,91453.55
2023-06-30T19:21:47.496Z,91452.06
2023-06-30T19:24:16.470Z,91456.30
2023-06-30T19:26:44.932Z,91456.98
2023-06-30T19:29:13.155Z,91456.80
2023-06-30T19:31:41.802Z,91458.92
2023-06-30T19:34:10.650Z,91456.20
2023-06-30T19:36:38.964Z,91456.83
2023-06-30T19:39:07.342Z,91455.13
2023-06-30T19:41:35.685Z,91453.91
2023-06-30T19:44:04.588Z,91454.90
2023-06-30T19:46:34.714Z,91459.44
2023-06-30T19:49:03.295Z,91452.94
2023-06-30T19:51:31.611Z,91453.30
2023-06-30T19:53:59.907Z,91461.83
2023-06-30T19:56:28.211Z,91461.44
2023-06-30T19:58:56.566Z,91463.80
2023-06-30T20:01:27.740Z,91464.78
2023-06-30T20:03:56.561Z,91466.46
2023-06-30T20:06:24.838Z,91465.98
2023-06-30T20:08:53.185Z,91464.21
2023-06-30T20:11:21.541Z,91462.95
2023-06-30T20:13:49.861Z,91464.04
2023-06-30T20:16:18.229Z,91462.85
2023-06-30T20:18:46.714Z,91460.35
2023-06-30T20:21:15.064Z,91462.67
2023-06-30T20:23:43.452Z,91462.85
2023-06-30T20:26:11.736Z,91466.96
2023-06-30T20:28:39.949Z,91466.17
2023-06-30T20:31:08.253Z,91465.85
2023-06-30T20:33:36.928Z,91463.13
2023-06-30T20:36:05.375Z,91464.57
2023-06-30T20:38:33.671Z,91467.09
2023-06-30T20:41:01.902Z,91466.80
2023-06-30T20:43:30.382Z,91467.08
2023-06-30T20:45:58.802Z,91470.87
2023-06-30T20:48:26.984Z,91468.97
2023-06-30T20:50:55.207Z,91476.17
2023-06-30T20:53:23.549Z,91476.85
2023-06-30T20:55:51.850Z,91475.20
2023-06-30T20:58:20.619Z,91471.65
2023-06-30T21:00:49.083Z,91467.15
2023-06-30T21:03:17.716Z,91469.09
2023-06-30T21:05:46.200Z,91467.77
2023-06-30T21:08:14.480Z,91469.98
2023-06-30T21:10:42.686Z,91470.12
2023-06-30T21:13:10.937Z,91473.85
2023-06-30T21:15:39.359Z,91472.23
2023-06-30T21:18:07.719Z,91478.95
2023-06-30T21:20:36.092Z,91476.77
2023-06-30T21:23:04.679Z,91476.60
2023-06-30T21:25:32.937Z,91469.66
2023-06-30T21:28:01.240Z,91468.49
2023-06-30T21:30:29.475Z,91469.52
2023-06-30T21:32:57.923Z,91475.46
2023-06-30T21:35:26.449Z,91475.95
2023-06-30T21:37:54.754Z,91475.63
2023-06-30T21:40:22.928Z,91477.20
2023-06-30T21:42:51.326Z,91475.69
2023-06-30T21:45:19.741Z,91478.39
2023-06-30T21:47:48.000Z,91482.64
2023-06-30T21:50:16.369Z,91486.48
2023-06-30T21:52:44.600Z,91483.84
2023-06-30T21:55:13.001Z,91485.52
2023-06-30T21:57:41.330Z,91484.84
2023-06-30T22:00:11.009Z,91484.07
2023-06-30T22:02:42.146Z,91479.33
2023-06-30T22:05:10.602Z,91471.29
2023-06-30T22:07:38.822Z,91470.27
2023-06-30T22:10:08.369Z,91468.59
2023-06-30T22:12:36.711Z,91465.60
2023-06-30T22:15:05.657Z,91459.51
2023-06-30T22:17:34.011Z,91464.04
2023-06-30T22:20:02.609Z,91463.00
2023-06-30T22:22:30.877Z,91460.94
2023-06-30T22:24:59.222Z,91457.84
2023-06-30T22:27:27.414Z,91454.87
2023-06-30T22:29:55.702Z,91454.32
2023-06-30T22:32:24.139Z,91456.42
2023-06-30T22:34:52.641Z,91466.45
2023-06-30T22:37:20.923Z,91465.75
2023-06-30T22:39:49.160Z,91464.13
2023-06-30T22:42:17.527Z,91461.88
2023-06-30T22:44:45.658Z,91462.95
2023-06-30T22:47:14.138Z,91458.70
2023-06-30T22:49:42.678Z,91458.58
2023-06-30T22:52:10.965Z,91455.31
2023-06-30T22:54:39.332Z,91464.63
2023-06-30T22:57:07.707Z,91462.02
2023-06-30T22:59:36.065Z,91459.04
2023-06-30T23:02:04.587Z,91459.08
2023-06-30T23:04:33.041Z,91464.95
2023-06-30T23:07:01.320Z,91464.67
2023-06-30T23:09:29.605Z,91465.66
2023-06-30T23:11:57.900Z,91465.39
2023-06-30T23:14:26.169Z,91465.90
2023-06-30T23:16:54.515Z,91467.52
2023-06-30T23:19:27.590Z,91465.23
2023-06-30T23:22:09.165Z,91467.69
2023-06-30T23:24:41.332Z,91462.73
2023-06-30T23:27:09.737Z,91460.45
2023-06-30T23:29:38.683Z,91460.14
2023-06-30T23:32:08.277Z,91463.11
2023-06-30T23:34:40.439Z,91463.10
2023-06-30T23:37:12.546Z,91465.66
2023-06-30T23:39:41.750Z,91464.37
2023-06-30T23:42:10.703Z,91464.01
2023-06-30T23:44:39.035Z,91466.77
2023-06-30T23:47:15.288Z,91465.30
2023-06-30T23:49:43.646Z,91463.77
2023-06-30T23:52:11.992Z,91463.16
2023-06-30T23:54:40.338Z,91465.99
2023-06-30T23:57:08.587Z,91464.86
2023-06-30T23:59:36.959Z,91465.95
